Twig, MN

8:06 PM CDT on October 21, 2014 (GMT -0500)
KMNDULUT16 | Change Station
CLOSE
Current Station
Personal Weather Station
Location: Canosia twp, Duluth, MN
Elevation: 1438 ft
Nearby Weather Stations

Elev 1438 ft 46.86 °N, 92.27 °W | Updated 5 seconds ago

Clear
Clear
38.7 °F
Feels Like 33 °F
N
8.3
Wind Variable Wind from North
Gusts 9.2 mph

Today
High -- | Low -- °F
--% Chance of Precip.
Yesterday
High -- | Low -- °F
Precip. -- in
7:35 AM 6:11 PM
Waning Crescent, 4% visible
Pressure 30.22 in
Visibility 10.0 miles
Clouds Few 700 ft
Windchill 33 °F
Dew Point 38 °F
Humidity 99%
Rainfall 0.00 in
Snow Depth Not available.
UV 0 out of 12
Pollen 1.00 out of 12
Air Quality Not available.
Flu Activity Sporadic
METAR KDLH 220055Z 10011KT 10SM FEW007 05/03 A3018 RMK AO2 SLP233 T00500028

More Conditions Fewer Conditions

Pressure 30.22 in
Visibility 10.0 miles
Clouds Few 700 ft
Windchill 33 °F
Dew Point 38 °F
Humidity 99%
Rainfall 0.00 in
Snow Depth Not available.
UV 0 out of 12
Pollen 1.00 out of 12
Air Quality Not available.
Flu Activity Sporadic
METAR KDLH 220055Z 10011KT 10SM FEW007 05/03 A3018 RMK AO2 SLP233 T00500028

More Conditions Fewer Conditions

10-Day Weather Forecast

Almanac

Astronomy

Oct. 21, 2014 Rise Set
Actual Time 7:35 AM CDT 6:11 PM CDT
Civil Twilight 7:04 AM CDT 6:42 PM CDT
Nautical Twilight 6:29 AM CDT 7:17 PM CDT
Astronomical Twilight 5:54 AM CDT 7:52 PM CDT
Moon 5:12 AM CDT (10/21) 5:12 PM CDT (10/21)
Length of Visible Light 11h 37m
Length of Day
10h 35m
Tomorrow will be 3m 10s shorter.
Waning Crescent, 4% of the Moon is Illuminated
Today
Waning Crescent
Oct 23
New
Oct 30
First Quarter
Nov 6
Full
Nov 14
Last Quarter

Today's Extremes

State Highs State Lows

Community

WunderPhotos

Upload Photos

1,763,836 photos uploaded!

Nearby

Snow Depth

Station Depth Elevation
No new snow has been reported.

Earthquake Activity

City Distance Mag. Time & Date
No recent earthquake activity has been reported nearby.
Minimum magnitude displayed is 2.5.

Coastal Water Temperatures

Place Temperature
Duluth, MN 54.0 °F

Nearby Weather Stations